Time;durP1;ratioP1;P1;durP2;ratioP2;P2;SDS_P1;SDS_P2;PMS_P1;PMS_P2;Temp;Humidity;BMP_temperature;BMP_pressure;BME280_temperature;BME280_humidity;BME280_pressure;Samples;Min_cycle;Max_cycle;Signal;HPM_P1;HPM_P2
2020/12/25 00:01:26;;;;;;;2.50;1.37;;;2.60;99.90;;;;;;5082866;28;20272;-63
2020/12/25 00:03:53;;;;;;;2.97;1.47;;;2.50;99.90;;;;;;5082167;28;20202;-62
2020/12/25 00:06:20;;;;;;;3.17;1.40;;;2.40;99.90;;;;;;5081108;28;20202;-59
2020/12/25 00:08:47;;;;;;;4.60;1.40;;;2.30;99.90;;;;;;5080364;28;20229;-62
2020/12/25 00:11:13;;;;;;;4.43;1.43;;;2.30;99.90;;;;;;5081426;28;20213;-60
2020/12/25 00:13:39;;;;;;;4.47;1.30;;;2.20;99.90;;;;;;5082622;28;20198;-63
2020/12/25 00:16:06;;;;;;;4.57;1.60;;;2.20;99.90;;;;;;5079142;28;20206;-61
2020/12/25 00:18:32;;;;;;;4.23;1.47;;;2.10;99.90;;;;;;5077395;28;20206;-63
2020/12/25 00:20:59;;;;;;;2.20;1.37;;;2.00;99.90;;;;;;5078207;28;20205;-62
2020/12/25 00:23:27;;;;;;;3.50;1.40;;;1.90;99.90;;;;;;5078277;28;20206;-64
2020/12/25 00:25:53;;;;;;;5.23;1.20;;;1.90;99.90;;;;;;5079899;28;20616;-65
2020/12/25 00:28:20;;;;;;;6.57;1.50;;;1.90;99.90;;;;;;5077603;28;20198;-62
2020/12/25 00:30:46;;;;;;;5.67;1.60;;;1.90;99.90;;;;;;5081636;28;20218;-62
2020/12/25 00:33:13;;;;;;;5.17;1.70;;;1.90;99.90;;;;;;5078494;28;20199;-61
2020/12/25 00:35:42;;;;;;;5.83;1.43;;;1.90;99.90;;;;;;5079903;28;20216;-63
2020/12/25 00:38:08;;;;;;;3.63;1.20;;;1.90;99.90;;;;;;5078255;28;20198;-63
2020/12/25 00:40:42;;;;;;;3.80;1.50;;;1.90;99.90;;;;;;5079012;28;20202;-61
2020/12/25 00:43:08;;;;;;;4.90;1.70;;;1.80;99.90;;;;;;5078935;28;20297;-62
2020/12/25 00:45:35;;;;;;;2.43;1.20;;;1.80;99.90;;;;;;5081505;28;20202;-62
2020/12/25 00:48:02;;;;;;;3.40;1.47;;;1.70;99.90;;;;;;5078389;28;20198;-61
2020/12/25 00:50:30;;;;;;;5.47;1.50;;;1.70;99.90;;;;;;5080742;28;20198;-61
2020/12/25 00:52:56;;;;;;;3.50;1.50;;;1.70;99.90;;;;;;5080801;28;20198;-62
2020/12/25 00:55:23;;;;;;;3.13;1.40;;;1.70;99.90;;;;;;5078678;28;20864;-63
2020/12/25 00:57:50;;;;;;;7.70;2.87;;;1.70;99.90;;;;;;5079399;28;20226;-63
2020/12/25 01:00:17;;;;;;;4.70;1.40;;;1.70;99.90;;;;;;5081139;28;20194;-63
2020/12/25 01:02:43;;;;;;;5.00;1.63;;;1.60;99.90;;;;;;5079501;28;20202;-62
2020/12/25 01:05:10;;;;;;;3.13;2.03;;;1.70;99.90;;;;;;5080232;28;20218;-62
2020/12/25 01:07:36;;;;;;;3.87;1.73;;;1.70;99.90;;;;;;5078399;28;20222;-61
2020/12/25 01:10:03;;;;;;;10.33;1.83;;;1.80;99.90;;;;;;5081623;28;20190;-61
2020/12/25 01:12:30;;;;;;;3.87;1.73;;;1.80;99.90;;;;;;5078568;28;20226;-61
2020/12/25 01:14:57;;;;;;;5.77;2.23;;;1.80;99.90;;;;;;5080573;28;20267;-62
2020/12/25 01:17:24;;;;;;;6.30;1.87;;;1.80;99.90;;;;;;5079645;28;20205;-62
2020/12/25 01:19:50;;;;;;;3.47;1.20;;;1.70;99.90;;;;;;5080561;28;20194;-61
2020/12/25 01:22:16;;;;;;;2.10;1.20;;;1.70;99.90;;;;;;5080337;28;20259;-62
2020/12/25 01:24:43;;;;;;;1.63;1.37;;;1.80;99.90;;;;;;5080594;28;20213;-61
2020/12/25 01:27:09;;;;;;;3.70;1.33;;;1.80;99.90;;;;;;5081144;28;20213;-61
2020/12/25 01:29:36;;;;;;;4.83;1.30;;;1.90;99.90;;;;;;5080294;28;20539;-62
2020/12/25 01:32:03;;;;;;;4.17;1.53;;;2.00;99.90;;;;;;5079857;28;20238;-63
2020/12/25 01:34:30;;;;;;;4.63;1.67;;;2.10;99.90;;;;;;5081181;28;20548;-64
2020/12/25 01:36:56;;;;;;;4.93;1.40;;;2.30;99.90;;;;;;5078437;28;20194;-61
2020/12/25 01:39:22;;;;;;;2.90;1.23;;;2.50;99.90;;;;;;5078619;28;20226;-61
2020/12/25 01:41:49;;;;;;;2.50;1.40;;;2.70;99.90;;;;;;5079260;28;20606;-65
2020/12/25 01:44:15;;;;;;;3.30;0.97;;;2.80;99.90;;;;;;5081631;28;20206;-64
2020/12/25 01:46:42;;;;;;;4.20;1.73;;;2.90;99.90;;;;;;5080917;28;20206;-65
2020/12/25 01:49:09;;;;;;;3.53;1.43;;;3.00;99.90;;;;;;5078271;28;20655;-60
2020/12/25 01:51:36;;;;;;;5.83;1.37;;;3.10;99.90;;;;;;5081448;28;20217;-61
2020/12/25 01:54:03;;;;;;;2.70;1.37;;;3.20;99.90;;;;;;5077734;28;20206;-61
2020/12/25 01:56:29;;;;;;;7.27;1.83;;;3.30;99.90;;;;;;5079124;28;20254;-61
2020/12/25 01:58:56;;;;;;;4.33;1.60;;;3.40;99.90;;;;;;5078597;28;20195;-60
2020/12/25 02:01:22;;;;;;;6.13;1.60;;;3.40;99.90;;;;;;5081035;28;20210;-62
2020/12/25 02:03:49;;;;;;;6.80;1.90;;;3.40;99.90;;;;;;5079586;28;20656;-62
2020/12/25 02:06:16;;;;;;;5.83;1.60;;;3.40;99.90;;;;;;5078754;28;20206;-63
2020/12/25 02:08:43;;;;;;;3.87;1.90;;;3.30;99.90;;;;;;5084188;28;20246;-62
2020/12/25 02:11:11;;;;;;;5.47;1.50;;;3.30;99.90;;;;;;5084121;28;20225;-62
2020/12/25 02:13:38;;;;;;;5.70;1.53;;;3.30;99.90;;;;;;5082930;28;20208;-61
2020/12/25 02:16:07;;;;;;;2.57;1.60;;;3.30;99.90;;;;;;5083805;28;20203;-61
2020/12/25 02:18:36;;;;;;;7.73;1.63;;;3.20;99.90;;;;;;5083525;28;21980;-62
2020/12/25 02:21:04;;;;;;;3.83;1.27;;;3.10;99.90;;;;;;5083997;28;20620;-60
2020/12/25 02:23:30;;;;;;;4.67;1.83;;;3.00;99.90;;;;;;5083835;28;20221;-66
2020/12/25 02:25:57;;;;;;;5.00;1.80;;;3.00;99.90;;;;;;5082439;28;20213;-64
2020/12/25 02:28:23;;;;;;;3.13;1.47;;;2.90;99.90;;;;;;5081393;28;20202;-60
2020/12/25 02:30:49;;;;;;;3.83;1.30;;;2.90;99.90;;;;;;5084004;28;20202;-61
2020/12/25 02:33:16;;;;;;;3.43;1.50;;;3.00;99.90;;;;;;5082880;28;20311;-62
2020/12/25 02:35:42;;;;;;;4.30;1.50;;;3.10;99.90;;;;;;5083296;28;20205;-63
2020/12/25 02:38:10;;;;;;;6.37;1.67;;;3.20;99.90;;;;;;5082970;28;20205;-62
2020/12/25 02:40:36;;;;;;;7.30;1.40;;;3.30;99.90;;;;;;5080017;28;20196;-62
2020/12/25 02:43:03;;;;;;;6.37;2.00;;;3.40;99.90;;;;;;5080881;28;20198;-61
2020/12/25 02:45:29;;;;;;;6.77;1.80;;;3.50;99.90;;;;;;5081259;28;20228;-63
2020/12/25 02:47:55;;;;;;;11.73;2.00;;;3.60;99.90;;;;;;5083072;28;20194;-61
2020/12/25 02:50:22;;;;;;;10.17;1.83;;;3.70;99.90;;;;;;5082010;28;20655;-62
2020/12/25 02:52:48;;;;;;;4.47;1.60;;;3.80;99.90;;;;;;5082646;28;20222;-63
2020/12/25 02:55:16;;;;;;;2.63;1.03;;;3.90;99.90;;;;;;5080245;28;20199;-61
2020/12/25 02:57:42;;;;;;;6.77;1.03;;;4.00;99.90;;;;;;5081727;28;20631;-61
2020/12/25 03:00:09;;;;;;;3.60;1.03;;;4.10;99.90;;;;;;5083008;28;20198;-65
2020/12/25 03:02:35;;;;;;;6.00;1.33;;;4.30;99.90;;;;;;5082775;28;20810;-60
2020/12/25 03:05:02;;;;;;;2.60;1.10;;;4.40;99.90;;;;;;5081349;28;20610;-64
2020/12/25 03:07:29;;;;;;;2.57;1.07;;;4.40;99.90;;;;;;5077940;28;20206;-62
2020/12/25 03:09:55;;;;;;;7.37;1.50;;;4.40;99.90;;;;;;5081017;28;20198;-62
2020/12/25 03:12:22;;;;;;;6.97;1.00;;;4.40;99.90;;;;;;5086393;28;20234;-62
2020/12/25 03:14:49;;;;;;;5.80;1.00;;;4.30;99.90;;;;;;5085612;28;20195;-61
2020/12/25 03:17:15;;;;;;;2.80;0.93;;;4.20;99.90;;;;;;5080908;28;20577;-63
2020/12/25 03:19:42;;;;;;;1.10;0.90;;;4.20;99.90;;;;;;5072242;28;20202;-63
2020/12/25 03:22:08;;;;;;;1.73;0.70;;;4.20;99.90;;;;;;5083031;28;20230;-61
2020/12/25 03:24:35;;;;;;;2.90;1.20;;;4.10;99.90;;;;;;5086712;28;20686;-61
2020/12/25 03:27:01;;;;;;;3.17;1.20;;;4.10;99.90;;;;;;5077141;28;20258;-63
2020/12/25 03:29:29;;;;;;;3.20;0.90;;;4.10;99.90;;;;;;5074291;28;20199;-62
2020/12/25 03:31:55;;;;;;;1.87;0.83;;;4.00;99.90;;;;;;5077271;28;20822;-64
2020/12/25 03:34:21;;;;;;;4.03;0.87;;;4.00;99.90;;;;;;5074514;28;20205;-61
2020/12/25 03:36:48;;;;;;;1.17;1.07;;;3.90;99.90;;;;;;5073778;28;20686;-61
2020/12/25 03:39:14;;;;;;;2.30;1.03;;;3.80;99.90;;;;;;5075405;28;20199;-66
2020/12/25 03:41:41;;;;;;;2.30;1.30;;;3.80;99.90;;;;;;5072293;28;20203;-64
2020/12/25 03:44:07;;;;;;;3.53;1.33;;;3.70;99.90;;;;;;5072266;28;20202;-62
2020/12/25 03:46:36;;;;;;;3.43;0.73;;;3.70;99.90;;;;;;5074095;28;20206;-61
2020/12/25 03:49:04;;;;;;;3.07;0.70;;;3.60;99.90;;;;;;5069939;28;20206;-62
2020/12/25 03:51:31;;;;;;;1.30;0.33;;;3.60;99.90;;;;;;5073026;28;20563;-61
2020/12/25 03:53:57;;;;;;;2.30;0.60;;;3.50;99.90;;;;;;5074277;28;20204;-63
2020/12/25 03:56:24;;;;;;;0.77;0.77;;;3.60;99.90;;;;;;5073876;28;20206;-64
2020/12/25 03:58:50;;;;;;;5.67;0.87;;;3.60;99.90;;;;;;5078496;28;20597;-61
2020/12/25 04:01:17;;;;;;;1.00;0.40;;;3.70;99.90;;;;;;5071267;28;20655;-62
2020/12/25 04:03:45;;;;;;;3.67;0.80;;;3.80;99.90;;;;;;5074666;28;20199;-62
2020/12/25 04:06:11;;;;;;;2.93;0.70;;;3.90;99.90;;;;;;5073363;28;20190;-61
2020/12/25 04:08:38;;;;;;;2.30;1.00;;;4.00;99.90;;;;;;5071433;28;20263;-62
2020/12/25 04:11:05;;;;;;;2.27;0.60;;;4.10;99.90;;;;;;5072459;28;20617;-61
2020/12/25 04:13:32;;;;;;;2.10;0.77;;;4.20;99.90;;;;;;5071517;28;20668;-62
2020/12/25 04:16:00;;;;;;;2.40;0.80;;;4.20;99.90;;;;;;5073276;28;20199;-62
2020/12/25 04:18:27;;;;;;;2.87;0.90;;;4.20;99.90;;;;;;5073918;28;20199;-63
2020/12/25 04:20:56;;;;;;;4.10;1.00;;;4.20;99.90;;;;;;5076049;28;20594;-62
2020/12/25 04:23:23;;;;;;;3.97;0.80;;;4.20;99.90;;;;;;5068864;28;20231;-62
2020/12/25 04:25:49;;;;;;;6.00;1.33;;;4.20;99.90;;;;;;5073037;28;20390;-60
2020/12/25 04:28:16;;;;;;;1.40;0.50;;;4.20;99.90;;;;;;5073788;28;20437;-66
2020/12/25 04:30:42;;;;;;;3.30;0.70;;;4.10;99.90;;;;;;5072071;28;20300;-62
2020/12/25 04:33:08;;;;;;;2.43;0.60;;;4.10;99.90;;;;;;5073270;28;20229;-62
2020/12/25 04:35:35;;;;;;;1.30;0.50;;;4.00;99.90;;;;;;5074056;28;21155;-64
2020/12/25 04:38:03;;;;;;;3.83;1.00;;;4.00;99.90;;;;;;5075129;28;20202;-61
2020/12/25 04:40:30;;;;;;;3.93;1.30;;;4.10;99.90;;;;;;5075148;28;20284;-63
2020/12/25 04:42:58;;;;;;;4.40;0.73;;;4.10;99.90;;;;;;5071096;28;20218;-62
2020/12/25 04:45:25;;;;;;;0.00;0.00;;;4.20;99.90;;;;;;5073080;28;20206;-60
2020/12/25 04:47:52;;;;;;;0.00;0.00;;;4.20;99.90;;;;;;5073549;28;20235;-63
2020/12/25 04:50:19;;;;;;;0.53;0.53;;;4.20;99.90;;;;;;5070325;28;20227;-62
2020/12/25 04:52:48;;;;;;;0.00;0.00;;;4.20;99.90;;;;;;5070096;28;20244;-64
2020/12/25 04:55:16;;;;;;;0.00;0.00;;;4.10;99.90;;;;;;5071152;28;20336;-60
2020/12/25 04:57:42;;;;;;;0.00;0.00;;;4.00;99.90;;;;;;5072198;28;20657;-63
2020/12/25 05:00:17;;;;;;;0.00;0.00;;;3.80;99.90;;;;;;5071484;28;20902;-65
2020/12/25 05:02:46;;;;;;;0.00;0.00;;;3.70;99.90;;;;;;5071006;28;20197;-62
2020/12/25 05:05:12;;;;;;;0.00;0.00;;;3.50;99.90;;;;;;5071488;28;20198;-64
2020/12/25 05:07:41;;;;;;;0.00;0.00;;;3.30;99.90;;;;;;5070486;28;20262;-65
2020/12/25 05:10:07;;;;;;;0.00;0.00;;;3.20;99.90;;;;;;5074050;28;20194;-65
2020/12/25 05:12:36;;;;;;;0.00;0.00;;;3.00;99.90;;;;;;5069388;28;20710;-63
2020/12/25 05:15:06;;;;;;;0.00;0.00;;;2.90;99.90;;;;;;5071835;28;20679;-62
2020/12/25 05:17:32;;;;;;;0.00;0.00;;;2.70;99.90;;;;;;5071160;28;20199;-67
2020/12/25 05:20:00;;;;;;;0.00;0.00;;;2.60;99.90;;;;;;5073694;28;20210;-64
2020/12/25 05:22:26;;;;;;;0.00;0.00;;;2.60;99.90;;;;;;5069123;28;20334;-65
2020/12/25 05:24:53;;;;;;;0.00;0.00;;;2.60;99.90;;;;;;5070481;28;20283;-63
2020/12/25 05:27:23;;;;;;;0.00;0.00;;;2.60;99.90;;;;;;5071952;28;22058;-64
2020/12/25 05:29:51;;;;;;;0.00;0.00;;;2.80;99.90;;;;;;5071176;28;20194;-64
2020/12/25 05:32:18;;;;;;;0.00;0.00;;;3.00;99.90;;;;;;5073588;28;20218;-66
2020/12/25 05:34:46;;;;;;;0.00;0.00;;;3.30;99.90;;;;;;5070713;28;20265;-65
2020/12/25 05:37:14;;;;;;;0.00;0.00;;;3.40;99.90;;;;;;5071552;28;20195;-66
2020/12/25 05:39:41;;;;;;;0.00;0.00;;;3.60;99.90;;;;;;5073477;28;20206;-67
2020/12/25 05:42:09;;;;;;;0.00;0.00;;;3.70;99.90;;;;;;5075888;28;20198;-65
2020/12/25 05:44:44;;;;;;;0.00;0.00;;;3.80;99.90;;;;;;5074673;28;20236;-64
2020/12/25 05:47:13;;;;;;;0.00;0.00;;;3.80;99.90;;;;;;5075907;28;20251;-65
2020/12/25 05:49:40;;;;;;;0.00;0.00;;;3.80;99.90;;;;;;5077804;28;20243;-65
2020/12/25 05:52:06;;;;;;;0.00;0.00;;;3.80;99.90;;;;;;5074807;28;20367;-66
2020/12/25 05:54:34;;;;;;;0.00;0.00;;;3.80;99.90;;;;;;5076309;28;20712;-65
2020/12/25 05:57:01;;;;;;;0.00;0.00;;;3.70;99.90;;;;;;5080040;28;20664;-68
2020/12/25 05:59:29;;;;;;;0.00;0.00;;;3.70;99.90;;;;;;5075674;28;20827;-65
2020/12/25 06:01:57;;;;;;;0.00;0.00;;;3.50;99.90;;;;;;5076490;28;20241;-62
2020/12/25 06:04:26;;;;;;;0.00;0.00;;;3.50;99.90;;;;;;5074300;28;20683;-65
2020/12/25 06:06:53;;;;;;;0.00;0.00;;;3.50;99.90;;;;;;5075137;28;20202;-65
2020/12/25 06:09:20;;;;;;;0.00;0.00;;;3.50;99.90;;;;;;5075217;28;20231;-65
2020/12/25 06:11:49;;;;;;;0.00;0.00;;;3.50;99.90;;;;;;5075242;28;20226;-65
2020/12/25 06:14:17;;;;;;;0.00;0.00;;;3.60;99.90;;;;;;5074828;28;20586;-65
2020/12/25 06:16:58;;;;;;;0.00;0.00;;;3.60;99.90;;;;;;5076922;28;20682;-63
2020/12/25 06:19:37;;;;;;;0.00;0.00;;;3.60;99.90;;;;;;5077546;28;20190;-64
2020/12/25 06:22:08;;;;;;;0.03;0.03;;;3.50;99.90;;;;;;5073281;28;20198;-66
2020/12/25 06:24:38;;;;;;;0.00;0.00;;;3.40;99.90;;;;;;5087013;28;20194;-63
2020/12/25 06:27:05;;;;;;;0.00;0.00;;;3.20;99.90;;;;;;5093274;28;20198;-65
2020/12/25 06:29:32;;;;;;;0.00;0.00;;;3.00;99.90;;;;;;5094359;28;20202;-64
2020/12/25 06:32:00;;;;;;;0.00;0.00;;;2.80;99.90;;;;;;5086476;28;21135;-65
2020/12/25 06:34:43;;;;;;;0.00;0.00;;;2.70;99.90;;;;;;5073422;28;20195;-64
2020/12/25 06:37:13;;;;;;;0.00;0.00;;;2.60;99.90;;;;;;5074737;28;20187;-65
2020/12/25 06:39:46;;;;;;;0.00;0.00;;;2.50;99.90;;;;;;5075058;28;20191;-66
2020/12/25 06:42:13;;;;;;;0.00;0.00;;;2.40;99.90;;;;;;5075430;28;20198;-68
2020/12/25 06:44:47;;;;;;;0.00;0.00;;;2.20;99.90;;;;;;5072128;28;20207;-63
2020/12/25 06:47:30;;;;;;;0.00;0.00;;;2.10;99.90;;;;;;5073352;28;20187;-66
2020/12/25 06:49:58;;;;;;;0.00;0.00;;;2.00;99.90;;;;;;5074332;28;20240;-64
2020/12/25 06:52:32;;;;;;;0.00;0.00;;;1.90;99.90;;;;;;5071894;28;20299;-66
2020/12/25 06:54:58;;;;;;;0.00;0.00;;;1.90;99.90;;;;;;5077703;28;20203;-65
2020/12/25 06:57:27;;;;;;;0.00;0.00;;;2.00;99.90;;;;;;5075996;28;20199;-67
2020/12/25 06:59:57;;;;;;;0.00;0.00;;;2.20;99.90;;;;;;5074251;28;20206;-66
2020/12/25 07:02:24;;;;;;;0.00;0.00;;;2.50;99.90;;;;;;5076853;28;20218;-72
2020/12/25 07:04:51;;;;;;;0.00;0.00;;;2.80;99.90;;;;;;5075637;28;20202;-67
2020/12/25 07:07:20;;;;;;;0.00;0.00;;;3.00;99.90;;;;;;5073779;28;20423;-67
2020/12/25 07:09:48;;;;;;;0.00;0.00;;;3.10;99.90;;;;;;5076761;28;20237;-72
2020/12/25 07:12:16;;;;;;;0.00;0.00;;;3.10;99.90;;;;;;5076342;28;20226;-69
2020/12/25 07:14:43;;;;;;;0.00;0.00;;;3.20;99.90;;;;;;5076476;28;20221;-73
2020/12/25 07:17:09;;;;;;;0.00;0.00;;;3.10;99.90;;;;;;5076334;28;20198;-72
2020/12/25 07:19:37;;;;;;;0.00;0.00;;;3.10;99.90;;;;;;5078421;28;20202;-71
2020/12/25 07:22:05;;;;;;;0.00;0.00;;;3.10;99.90;;;;;;5074393;28;20252;-70
2020/12/25 07:24:37;;;;;;;0.00;0.00;;;3.10;99.90;;;;;;5072390;28;20214;-66
2020/12/25 07:27:04;;;;;;;0.00;0.00;;;3.20;99.90;;;;;;5074140;28;20195;-67
2020/12/25 07:29:32;;;;;;;0.00;0.00;;;3.30;99.90;;;;;;5074416;28;22273;-67
2020/12/25 07:31:58;;;;;;;0.00;0.00;;;3.30;99.90;;;;;;5076551;28;20686;-71
2020/12/25 07:34:26;;;;;;;0.00;0.00;;;3.40;99.90;;;;;;5073015;28;20325;-73
2020/12/25 07:36:54;;;;;;;0.00;0.00;;;3.40;99.90;;;;;;5071921;28;20202;-66
2020/12/25 07:39:22;;;;;;;0.00;0.00;;;3.40;99.90;;;;;;5072616;28;20198;-67
2020/12/25 07:41:50;;;;;;;0.00;0.00;;;3.40;99.90;;;;;;5073492;28;20205;-66
2020/12/25 07:44:16;;;;;;;0.00;0.00;;;3.30;99.90;;;;;;5073603;28;20209;-65
2020/12/25 07:46:43;;;;;;;0.00;0.00;;;3.20;99.90;;;;;;5073516;28;20209;-65
2020/12/25 07:49:10;;;;;;;0.37;0.33;;;3.00;99.90;;;;;;5076417;28;20199;-67
2020/12/25 07:51:37;;;;;;;0.00;0.00;;;2.90;99.90;;;;;;5078039;28;20718;-62
2020/12/25 07:54:05;;;;;;;0.00;0.00;;;2.80;99.90;;;;;;5076436;28;20561;-62
2020/12/25 07:56:33;;;;;;;0.00;0.00;;;2.80;99.90;;;;;;5073695;28;20213;-64
2020/12/25 07:59:01;;;;;;;0.00;0.00;;;2.70;99.90;;;;;;5078170;28;20191;-68
2020/12/25 08:01:29;;;;;;;0.00;0.00;;;2.60;99.90;;;;;;5072903;28;20231;-66
2020/12/25 08:03:58;;;;;;;0.00;0.00;;;2.50;99.90;;;;;;5071950;28;20655;-63
2020/12/25 08:06:26;;;;;;;0.00;0.00;;;2.40;99.90;;;;;;5073454;28;20235;-72
2020/12/25 08:08:56;;;;;;;0.00;0.00;;;2.30;99.90;;;;;;5074121;28;20235;-69
2020/12/25 08:11:26;;;;;;;0.00;0.00;;;2.20;99.90;;;;;;5072015;28;20225;-65
2020/12/25 08:13:56;;;;;;;0.00;0.00;;;2.00;99.90;;;;;;5071842;28;20679;-65
2020/12/25 08:16:24;;;;;;;0.00;0.00;;;1.90;99.90;;;;;;5072222;28;20220;-69
2020/12/25 08:18:51;;;;;;;0.00;0.00;;;1.90;99.90;;;;;;5073068;28;20202;-64
2020/12/25 08:21:17;;;;;;;0.00;0.00;;;2.00;99.90;;;;;;5075390;28;20210;-65
2020/12/25 08:23:44;;;;;;;0.10;0.10;;;2.20;99.90;;;;;;5073602;28;20213;-69
2020/12/25 08:26:12;;;;;;;0.00;0.00;;;2.40;99.90;;;;;;5078375;28;20191;-64
2020/12/25 08:28:41;;;;;;;0.00;0.00;;;2.50;99.90;;;;;;5074351;28;20224;-67
2020/12/25 08:31:17;;;;;;;0.00;0.00;;;2.80;99.90;;;;;;5076812;28;20206;-66
2020/12/25 08:33:53;;;;;;;0.00;0.00;;;3.00;99.90;;;;;;5082680;28;20225;-64
2020/12/25 08:36:20;;;;;;;0.00;0.00;;;3.10;99.90;;;;;;5073430;28;20191;-68
2020/12/25 08:38:46;;;;;;;0.00;0.00;;;3.00;99.90;;;;;;5068993;28;20198;-70
2020/12/25 08:41:13;;;;;;;0.00;0.00;;;2.90;99.90;;;;;;5077556;28;20213;-66
2020/12/25 08:43:39;;;;;;;0.00;0.00;;;2.80;99.90;;;;;;5075286;28;20199;-65
2020/12/25 08:46:06;;;;;;;0.00;0.00;;;2.70;99.90;;;;;;5072405;28;20199;-66
2020/12/25 08:48:33;;;;;;;0.00;0.00;;;2.60;99.90;;;;;;5072481;28;20209;-65
2020/12/25 08:51:09;;;;;;;0.00;0.00;;;2.50;99.90;;;;;;5073476;28;20198;-71
2020/12/25 08:53:35;;;;;;;0.00;0.00;;;2.50;99.90;;;;;;5079022;28;20248;-71
2020/12/25 08:56:15;;;;;;;0.10;0.10;;;2.40;99.90;;;;;;5074525;28;20198;-69
2020/12/25 08:58:41;;;;;;;0.00;0.00;;;2.30;99.90;;;;;;5073051;28;20210;-70
2020/12/25 09:01:08;;;;;;;0.00;0.00;;;2.20;99.90;;;;;;5073490;28;20201;-66
2020/12/25 09:03:41;;;;;;;0.00;0.00;;;2.30;99.90;;;;;;5094867;28;20202;-68
2020/12/25 09:06:09;;;;;;;0.00;0.00;;;2.50;99.90;;;;;;5091801;28;20547;-65
2020/12/25 09:08:36;;;;;;;0.00;0.00;;;2.80;99.90;;;;;;5092553;28;20232;-66
2020/12/25 09:11:08;;;;;;;0.00;0.00;;;3.20;99.90;;;;;;5091323;28;20209;-72
2020/12/25 09:13:35;;;;;;;0.00;0.00;;;3.70;99.90;;;;;;5090396;28;20297;-71
2020/12/25 09:16:01;;;;;;;0.00;0.00;;;4.00;99.90;;;;;;5088913;28;20228;-68
2020/12/25 09:18:28;;;;;;;0.00;0.00;;;4.30;99.90;;;;;;5089290;28;20202;-69
2020/12/25 09:20:54;;;;;;;0.00;0.00;;;4.50;99.90;;;;;;5107131;28;20201;-71
2020/12/25 09:23:22;;;;;;;0.00;0.00;;;4.50;99.90;;;;;;5092052;28;20202;-72
2020/12/25 09:25:48;;;;;;;0.00;0.00;;;4.50;99.90;;;;;;5090820;28;20682;-69
2020/12/25 09:28:15;;;;;;;0.00;0.00;;;4.40;99.90;;;;;;5092722;28;20248;-71
2020/12/25 09:30:41;;;;;;;0.20;0.20;;;4.40;99.90;;;;;;5090846;28;20194;-71
2020/12/25 09:33:08;;;;;;;0.00;0.00;;;4.30;99.90;;;;;;5088121;28;20229;-69
2020/12/25 09:35:34;;;;;;;0.00;0.00;;;4.30;99.90;;;;;;5091542;28;20199;-69
2020/12/25 09:38:01;;;;;;;0.00;0.00;;;4.60;99.90;;;;;;5091017;28;20205;-66
2020/12/25 09:40:28;;;;;;;0.30;0.23;;;5.00;99.90;;;;;;5090497;28;20727;-71
2020/12/25 09:42:55;;;;;;;0.00;0.00;;;5.40;99.90;;;;;;5091224;28;20194;-71
2020/12/25 09:45:21;;;;;;;0.00;0.00;;;5.60;99.90;;;;;;5090360;28;20609;-70
2020/12/25 09:47:48;;;;;;;0.00;0.00;;;5.80;99.90;;;;;;5083929;28;20195;-66
2020/12/25 09:50:14;;;;;;;0.00;0.00;;;6.00;99.90;;;;;;5092955;28;20195;-68
2020/12/25 09:52:41;;;;;;;0.00;0.00;;;6.10;99.90;;;;;;5091228;28;20687;-69
2020/12/25 09:55:07;;;;;;;0.33;0.33;;;6.30;99.90;;;;;;5093870;28;20202;-67
2020/12/25 09:57:35;;;;;;;1.07;1.07;;;6.40;99.90;;;;;;5090700;28;20191;-67
2020/12/25 10:00:08;;;;;;;0.00;0.00;;;6.60;99.90;;;;;;5092725;28;20203;-67
2020/12/25 10:02:35;;;;;;;0.00;0.00;;;7.00;99.90;;;;;;5080583;28;20243;-67
2020/12/25 10:05:01;;;;;;;1.27;1.27;;;7.20;99.90;;;;;;5078265;28;20332;-70
2020/12/25 10:07:28;;;;;;;0.00;0.00;;;7.30;99.90;;;;;;5078641;28;20632;-69
2020/12/25 10:09:54;;;;;;;0.00;0.00;;;7.30;99.90;;;;;;5078567;28;20198;-69
2020/12/25 10:12:21;;;;;;;0.00;0.00;;;7.20;99.90;;;;;;5078399;28;20250;-69
2020/12/25 10:14:48;;;;;;;0.00;0.00;;;7.00;99.90;;;;;;5076331;28;20655;-70
2020/12/25 10:17:15;;;;;;;0.00;0.00;;;6.80;99.90;;;;;;5078812;28;20199;-69
2020/12/25 10:19:41;;;;;;;0.00;0.00;;;6.50;99.90;;;;;;5076519;28;20559;-70
2020/12/25 10:22:08;;;;;;;0.00;0.00;;;6.20;99.90;;;;;;5080276;28;20202;-69
2020/12/25 10:24:34;;;;;;;0.00;0.00;;;5.80;99.90;;;;;;5077176;28;20599;-66
2020/12/25 10:27:01;;;;;;;0.00;0.00;;;5.60;99.90;;;;;;5077968;28;20198;-68
2020/12/25 10:29:28;;;;;;;0.33;0.33;;;5.30;99.90;;;;;;5078491;28;20202;-70
2020/12/25 10:31:55;;;;;;;0.00;0.00;;;5.10;99.90;;;;;;5082435;28;20218;-69
2020/12/25 10:34:22;;;;;;;0.00;0.00;;;5.00;99.90;;;;;;5082415;28;20415;-68
2020/12/25 10:36:48;;;;;;;0.00;0.00;;;4.90;99.90;;;;;;5082149;28;20247;-69
2020/12/25 10:39:16;;;;;;;0.00;0.00;;;4.90;99.90;;;;;;5081739;28;20205;-67
2020/12/25 10:41:42;;;;;;;0.00;0.00;;;4.80;99.90;;;;;;5080495;28;20209;-68
2020/12/25 10:44:09;;;;;;;0.00;0.00;;;4.90;99.90;;;;;;5079865;28;20202;-67
2020/12/25 10:46:36;;;;;;;0.00;0.00;;;5.00;99.90;;;;;;5079425;28;20200;-68
2020/12/25 10:49:03;;;;;;;0.00;0.00;;;5.20;99.90;;;;;;5078283;28;20231;-69
2020/12/25 10:51:30;;;;;;;0.00;0.00;;;5.50;99.90;;;;;;5084656;28;20205;-69
2020/12/25 10:53:56;;;;;;;0.00;0.00;;;5.80;99.90;;;;;;5082704;28;20540;-64
2020/12/25 10:56:24;;;;;;;0.00;0.00;;;5.70;99.90;;;;;;5080750;28;20209;-67
2020/12/25 10:58:50;;;;;;;0.00;0.00;;;5.60;99.90;;;;;;5080209;28;20731;-68
2020/12/25 11:01:22;;;;;;;0.00;0.00;;;5.30;99.90;;;;;;5077907;28;20198;-71
2020/12/25 11:03:48;;;;;;;0.00;0.00;;;5.20;99.90;;;;;;5081993;28;20205;-70
2020/12/25 11:06:15;;;;;;;0.00;0.00;;;5.10;99.90;;;;;;5077499;28;20213;-72
2020/12/25 11:08:42;;;;;;;0.47;0.47;;;5.10;99.90;;;;;;5080263;28;20241;-69
2020/12/25 11:11:08;;;;;;;0.00;0.00;;;5.00;99.90;;;;;;5082242;28;20537;-71
2020/12/25 11:13:35;;;;;;;0.00;0.00;;;4.90;99.90;;;;;;5080768;28;20279;-70
2020/12/25 11:16:02;;;;;;;0.00;0.00;;;4.80;99.90;;;;;;5081030;28;20210;-70
2020/12/25 11:18:28;;;;;;;0.00;0.00;;;4.80;99.90;;;;;;5078972;28;20212;-69
2020/12/25 11:20:55;;;;;;;0.00;0.00;;;4.80;99.90;;;;;;5079199;28;20195;-72
2020/12/25 11:23:22;;;;;;;0.00;0.00;;;4.90;99.90;;;;;;5084091;28;20195;-72
2020/12/25 11:25:49;;;;;;;0.00;0.00;;;5.00;99.90;;;;;;5083588;28;20194;-70
2020/12/25 11:28:15;;;;;;;0.00;0.00;;;5.30;99.90;;;;;;5080530;28;20199;-70
2020/12/25 11:30:43;;;;;;;0.00;0.00;;;5.60;99.90;;;;;;5081031;28;20198;-70
2020/12/25 11:33:09;;;;;;;0.00;0.00;;;5.90;99.90;;;;;;5080671;28;20730;-68
2020/12/25 11:35:35;;;;;;;0.00;0.00;;;6.20;99.90;;;;;;5076237;28;20206;-70
2020/12/25 11:38:02;;;;;;;0.00;0.00;;;6.20;99.90;;;;;;5083157;28;20218;-70
2020/12/25 11:40:29;;;;;;;0.00;0.00;;;6.30;99.90;;;;;;5083733;28;20213;-69
2020/12/25 11:42:56;;;;;;;0.00;0.00;;;6.40;99.90;;;;;;5081052;28;20202;-70
2020/12/25 11:45:23;;;;;;;0.00;0.00;;;6.70;99.90;;;;;;5083940;28;20198;-68
2020/12/25 11:47:49;;;;;;;0.00;0.00;;;7.00;99.90;;;;;;5084416;28;20210;-69
2020/12/25 11:50:15;;;;;;;0.00;0.00;;;7.30;99.90;;;;;;5082406;27;20210;-68
2020/12/25 11:52:42;;;;;;;0.00;0.00;;;7.50;99.90;;;;;;5084082;28;20228;-67
2020/12/25 11:55:09;;;;;;;0.00;0.00;;;7.60;99.90;;;;;;5081534;28;20248;-65
2020/12/25 11:57:36;;;;;;;0.00;0.00;;;7.40;99.90;;;;;;5083783;28;20208;-68
2020/12/25 12:00:04;;;;;;;0.00;0.00;;;7.40;99.90;;;;;;5080216;28;20766;-66
2020/12/25 12:02:30;;;;;;;0.00;0.00;;;7.30;99.90;;;;;;5075551;28;20199;-68
2020/12/25 12:04:56;;;;;;;0.00;0.00;;;7.10;99.90;;;;;;5077828;28;20202;-64
2020/12/25 12:07:23;;;;;;;0.00;0.00;;;7.30;99.90;;;;;;5081265;28;20205;-67
2020/12/25 12:09:49;;;;;;;0.00;0.00;;;7.60;99.90;;;;;;5079293;28;20247;-68
2020/12/25 12:12:16;;;;;;;0.00;0.00;;;7.90;99.90;;;;;;5077980;28;20276;-68
2020/12/25 12:14:43;;;;;;;0.00;0.00;;;8.20;99.90;;;;;;5080802;28;20202;-75
2020/12/25 12:17:09;;;;;;;0.00;0.00;;;8.50;99.90;;;;;;5077212;28;20708;-68
2020/12/25 12:19:36;;;;;;;0.00;0.00;;;9.00;99.90;;;;;;5079692;28;20639;-68
2020/12/25 12:22:02;;;;;;;0.00;0.00;;;9.30;99.90;;;;;;5077584;28;20259;-68
2020/12/25 12:24:29;;;;;;;0.00;0.00;;;9.60;99.90;;;;;;5078596;28;20194;-67
2020/12/25 12:26:55;;;;;;;0.00;0.00;;;10.10;99.90;;;;;;5081311;28;20656;-68
2020/12/25 12:29:22;;;;;;;0.00;0.00;;;10.50;99.90;;;;;;5079742;28;20534;-65
2020/12/25 12:31:49;;;;;;;0.00;0.00;;;10.80;99.90;;;;;;5081546;28;20190;-68
2020/12/25 12:34:16;;;;;;;0.00;0.00;;;10.90;99.90;;;;;;5080163;28;20651;-66
2020/12/25 12:36:45;;;;;;;0.00;0.00;;;11.00;99.90;;;;;;5081350;28;20207;-66
2020/12/25 12:39:12;;;;;;;0.00;0.00;;;11.00;99.90;;;;;;5080545;28;20208;-67
2020/12/25 12:41:38;;;;;;;0.00;0.00;;;10.70;99.90;;;;;;5076435;28;20194;-66
2020/12/25 12:44:05;;;;;;;0.00;0.00;;;10.70;99.90;;;;;;5080762;28;20213;-65
2020/12/25 12:46:31;;;;;;;0.00;0.00;;;10.60;99.90;;;;;;5078400;28;20194;-64
2020/12/25 12:48:58;;;;;;;0.00;0.00;;;10.70;99.90;;;;;;5081543;28;20247;-69
2020/12/25 12:51:25;;;;;;;0.00;0.00;;;10.80;99.90;;;;;;5079712;28;20194;-69
2020/12/25 12:53:51;;;;;;;0.00;0.00;;;10.80;99.90;;;;;;5077676;28;20218;-69
2020/12/25 12:56:18;;;;;;;0.00;0.00;;;11.00;99.90;;;;;;5077965;28;20213;-68